createdAt,value
2023-04-19T05:33:54.937Z,98643.00
2023-04-19T05:40:29.780Z,98643.00
2023-04-19T05:48:08.076Z,98645.00
2023-04-19T05:55:45.736Z,98645.00
2023-04-19T06:03:42.416Z,98653.00
2023-04-19T06:06:10.202Z,98652.00
2023-04-19T06:08:37.652Z,98653.00
2023-04-19T06:14:02.778Z,98656.00
2023-04-19T06:16:30.246Z,98653.00
2023-04-19T06:18:57.969Z,98660.00
2023-04-19T06:21:25.552Z,98654.00
2023-04-19T06:23:53.090Z,98650.00
2023-04-19T06:26:20.740Z,98660.00
2023-04-19T06:28:48.166Z,98655.00
2023-04-19T06:31:15.716Z,98656.00
2023-04-19T06:33:43.936Z,98657.00
2023-04-19T06:36:11.393Z,98656.00
2023-04-19T06:38:38.912Z,98667.00
2023-04-19T06:41:06.370Z,98661.00
2023-04-19T06:43:33.943Z,98666.00
2023-04-19T06:46:02.419Z,98664.00
2023-04-19T06:48:30.116Z,98659.00
2023-04-19T06:50:57.792Z,98658.00
2023-04-19T06:53:25.195Z,98664.00
2023-04-19T06:56:01.877Z,98661.00
2023-04-19T06:58:31.800Z,98663.00
2023-04-19T07:01:01.535Z,98664.00
2023-04-19T07:03:29.632Z,98674.00
2023-04-19T07:05:57.421Z,98664.00
2023-04-19T07:08:34.973Z,98659.00
2023-04-19T07:11:06.537Z,98660.00
2023-04-19T07:13:33.963Z,98653.00
2023-04-19T07:16:05.888Z,98659.00
2023-04-19T07:18:33.381Z,98663.00
2023-04-19T07:21:00.801Z,98662.00
2023-04-19T07:23:28.201Z,98662.00
2023-04-19T07:25:55.793Z,98660.00
2023-04-19T07:28:23.366Z,98656.00
2023-04-19T07:30:50.852Z,98656.00
2023-04-19T07:33:18.404Z,98661.00
2023-04-19T07:35:46.333Z,98659.00
2023-04-19T07:38:13.828Z,98655.00
2023-04-19T07:40:41.811Z,98658.00
2023-04-19T07:43:09.228Z,98662.00
2023-04-19T07:45:36.750Z,98660.00
2023-04-19T07:48:04.533Z,98657.00
2023-04-19T07:50:31.972Z,98660.00
2023-04-19T07:52:59.384Z,98661.00
2023-04-19T07:55:26.826Z,98663.00
2023-04-19T07:57:54.198Z,98669.00
2023-04-19T08:00:21.837Z,98660.00
2023-04-19T08:02:50.187Z,98657.00
2023-04-19T08:05:18.111Z,98651.00
2023-04-19T08:07:46.087Z,98654.00
2023-04-19T08:10:13.667Z,98658.00
2023-04-19T08:12:53.631Z,98655.00
2023-04-19T08:16:15.180Z,98656.00
2023-04-19T08:18:16.734Z,98649.00
2023-04-19T08:20:46.622Z,98647.00
2023-04-19T08:23:22.868Z,98656.00
2023-04-19T08:25:53.457Z,98642.00
2023-04-19T08:28:20.927Z,98641.00
2023-04-19T08:30:49.115Z,98648.00
2023-04-19T08:33:16.594Z,98648.00
2023-04-19T08:35:45.735Z,98655.00
2023-04-19T08:38:13.172Z,98652.00
2023-04-19T08:40:53.474Z,98647.00
2023-04-19T08:43:22.031Z,98642.00
2023-04-19T08:45:50.975Z,98638.00
2023-04-19T08:48:19.341Z,98638.00
2023-04-19T08:51:03.402Z,98641.00
2023-04-19T08:53:35.901Z,98638.00
2023-04-19T08:56:15.270Z,98638.00
2023-04-19T08:59:03.979Z,98644.00
2023-04-19T09:01:38.749Z,98650.00
2023-04-19T09:04:21.589Z,98637.00
2023-04-19T09:06:56.050Z,98640.00
2023-04-19T09:09:38.761Z,98638.00
2023-04-19T09:12:18.467Z,98642.00
2023-04-19T09:17:18.587Z,98624.00
2023-04-19T09:19:50.685Z,98628.00
2023-04-19T09:22:18.955Z,98625.00
2023-04-19T09:25:22.548Z,98627.00
2023-04-19T09:27:37.496Z,98624.00
2023-04-19T09:30:12.704Z,98620.00
2023-04-19T09:32:49.662Z,98618.00
2023-04-19T09:35:17.377Z,98620.00
2023-04-19T09:38:06.146Z,98613.00
2023-04-19T09:40:34.648Z,98620.00
2023-04-19T09:43:17.960Z,98614.00
2023-04-19T09:45:51.751Z,98616.00
2023-04-19T09:48:19.193Z,98611.00
2023-04-19T09:51:02.766Z,98612.00
2023-04-19T09:53:35.746Z,98602.00
2023-04-19T09:56:05.473Z,98603.00
2023-04-19T10:01:14.176Z,98599.00
2023-04-19T10:03:48.934Z,98601.00
2023-04-19T10:08:53.599Z,98592.00
2023-04-19T10:11:27.076Z,98590.00
2023-04-19T10:14:01.561Z,98587.00
2023-04-19T10:16:31.420Z,98587.00
2023-04-19T10:18:59.847Z,98591.00
2023-04-19T10:21:29.244Z,98583.00
2023-04-19T10:23:58.606Z,98590.00
2023-04-19T10:26:26.617Z,98582.00
2023-04-19T10:28:58.407Z,98582.00
2023-04-19T10:31:27.100Z,98575.00
2023-04-19T10:33:55.461Z,98578.00
2023-04-19T10:36:22.946Z,98575.00
2023-04-19T10:38:55.919Z,98571.00
2023-04-19T10:41:23.494Z,98574.00
2023-04-19T10:43:57.772Z,98578.00
2023-04-19T10:46:26.337Z,98574.00
2023-04-19T10:49:03.018Z,98574.00
2023-04-19T10:51:47.693Z,98568.00
2023-04-19T10:54:36.568Z,98558.00
2023-04-19T10:57:10.332Z,98563.00
2023-04-19T10:59:43.065Z,98560.00
2023-04-19T11:02:22.901Z,98558.00
2023-04-19T11:04:53.523Z,98549.00
2023-04-19T11:07:24.056Z,98550.00
2023-04-19T11:09:52.629Z,98556.00
2023-04-19T11:12:21.907Z,98549.00
2023-04-19T11:15:00.098Z,98545.00
2023-04-19T11:17:32.996Z,98543.00
2023-04-19T11:20:10.970Z,98544.00
2023-04-19T11:22:43.271Z,98548.00
2023-04-19T11:25:22.348Z,98536.00
2023-04-19T11:27:53.537Z,98542.00
2023-04-19T11:30:29.977Z,98538.00
2023-04-19T11:32:58.335Z,98522.00
2023-04-19T11:35:29.128Z,98528.00
2023-04-19T11:37:59.098Z,98529.00
2023-04-19T11:40:27.178Z,98518.00
2023-04-19T11:43:05.210Z,98512.00
2023-04-19T11:45:39.978Z,98513.00
2023-04-19T11:48:15.937Z,98503.00
2023-04-19T11:50:45.854Z,98507.00
2023-04-19T11:53:23.857Z,98511.00
2023-04-19T11:56:03.857Z,98506.00
2023-04-19T11:58:44.941Z,98500.00
2023-04-19T12:01:16.612Z,98510.00
2023-04-19T12:04:10.583Z,98494.00
2023-04-19T12:06:38.133Z,98482.00
2023-04-19T12:09:11.401Z,98496.00
2023-04-19T12:11:50.106Z,98489.00
2023-04-19T12:14:23.396Z,98491.00
2023-04-19T12:17:13.541Z,98493.00
2023-04-19T12:19:47.777Z,98487.00
2023-04-19T12:22:23.811Z,98490.00
2023-04-19T12:24:56.065Z,98483.00
2023-04-19T12:27:23.542Z,98483.00
2023-04-19T12:29:51.035Z,98477.00
2023-04-19T12:32:18.606Z,98477.00
2023-04-19T12:34:46.323Z,98477.00
2023-04-19T12:37:13.709Z,98471.00
2023-04-19T12:39:41.092Z,98472.00
2023-04-19T12:42:08.733Z,98467.00
2023-04-19T12:44:36.105Z,98472.00
2023-04-19T12:47:03.718Z,98473.00
2023-04-19T12:49:31.166Z,98465.00
2023-04-19T12:51:58.579Z,98467.00
2023-04-19T12:54:26.106Z,98451.00
2023-04-19T12:56:53.804Z,98446.00
2023-04-19T12:59:22.167Z,98450.00
2023-04-19T13:01:50.176Z,98447.00
2023-04-19T13:04:18.052Z,98438.00
2023-04-19T13:06:46.043Z,98452.00
2023-04-19T13:09:14.966Z,98440.00
2023-04-19T13:11:42.727Z,98445.00
2023-04-19T13:14:10.175Z,98435.00
2023-04-19T13:16:37.559Z,98435.00
2023-04-19T13:19:05.605Z,98437.00
2023-04-19T13:21:33.071Z,98433.00
2023-04-19T13:24:00.857Z,98429.00
2023-04-19T13:26:28.913Z,98428.00
2023-04-19T13:28:56.694Z,98427.00
2023-04-19T13:31:26.651Z,98427.00
2023-04-19T13:33:55.111Z,98424.00
2023-04-19T13:36:22.825Z,98407.00
2023-04-19T13:38:50.241Z,98424.00
2023-04-19T13:41:17.655Z,98414.00
2023-04-19T13:43:45.847Z,98418.00
2023-04-19T13:46:13.615Z,98406.00
2023-04-19T13:48:41.281Z,98403.00
2023-04-19T13:51:09.075Z,98404.00
2023-04-19T13:53:36.505Z,98401.00
2023-04-19T13:56:04.677Z,98395.00
2023-04-19T13:58:32.112Z,98391.00
2023-04-19T14:00:59.613Z,98390.00
2023-04-19T14:03:27.245Z,98390.00
2023-04-19T14:05:54.865Z,98388.00
2023-04-19T14:08:22.370Z,98383.00
2023-04-19T14:10:51.158Z,98383.00
2023-04-19T14:13:18.721Z,98374.00
2023-04-19T14:15:46.753Z,98376.00
2023-04-19T14:18:14.368Z,98375.00
2023-04-19T14:20:41.996Z,98361.00
2023-04-19T14:23:09.714Z,98369.00
2023-04-19T14:25:37.333Z,98357.00
2023-04-19T14:28:05.171Z,98361.00
2023-04-19T14:30:32.763Z,98361.00
2023-04-19T14:33:00.512Z,98351.00
2023-04-19T14:35:28.431Z,98347.00
2023-04-19T14:37:56.008Z,98349.00
2023-04-19T14:40:24.104Z,98336.00
2023-04-19T14:42:51.703Z,98339.00
2023-04-19T14:45:19.437Z,98342.00
2023-04-19T14:47:47.035Z,98336.00
2023-04-19T14:50:14.826Z,98335.00
2023-04-19T14:52:42.443Z,98335.00
2023-04-19T14:55:11.434Z,98330.00
2023-04-19T14:57:39.080Z,98335.00
2023-04-19T15:00:08.123Z,98323.00
2023-04-19T15:02:36.121Z,98323.00
2023-04-19T15:05:04.331Z,98324.00
2023-04-19T15:07:32.371Z,98324.00
2023-04-19T15:10:00.031Z,98315.00
2023-04-19T15:12:27.668Z,98322.00
2023-04-19T15:14:55.309Z,98319.00
2023-04-19T15:17:22.882Z,98315.00
2023-04-19T15:19:50.425Z,98315.00
2023-04-19T15:22:18.034Z,98308.00
2023-04-19T15:24:45.899Z,98316.00
2023-04-19T15:27:13.428Z,98311.00
2023-04-19T15:29:41.513Z,98308.00
2023-04-19T15:32:09.040Z,98302.00
2023-04-19T15:34:36.632Z,98297.00
2023-04-19T15:37:06.597Z,98299.00
2023-04-19T15:39:34.206Z,98301.00
2023-04-19T15:42:02.285Z,98301.00
2023-04-19T15:44:30.425Z,98296.00
2023-04-19T15:46:58.042Z,98283.00
2023-04-19T15:49:25.734Z,98288.00
2023-04-19T15:51:53.451Z,98283.00
2023-04-19T15:54:23.075Z,98275.00
2023-04-19T15:56:50.776Z,98293.00
2023-04-19T15:59:18.558Z,98290.00
2023-04-19T16:01:46.362Z,98288.00
2023-04-19T16:04:14.280Z,98295.00
2023-04-19T16:06:42.010Z,98297.00
2023-04-19T16:09:09.642Z,98291.00
2023-04-19T16:11:37.234Z,98295.00
2023-04-19T16:14:04.812Z,98291.00
2023-04-19T16:16:34.437Z,98290.00
2023-04-19T16:19:02.187Z,98283.00
2023-04-19T16:21:29.648Z,98285.00
2023-04-19T16:23:57.197Z,98286.00
2023-04-19T16:26:24.754Z,98287.00
2023-04-19T16:28:52.456Z,98282.00
2023-04-19T16:31:19.965Z,98284.00
2023-04-19T16:33:47.355Z,98289.00
2023-04-19T16:36:14.796Z,98286.00
2023-04-19T16:38:42.323Z,98282.00
2023-04-19T16:41:09.821Z,98287.00
2023-04-19T16:43:37.242Z,98278.00
2023-04-19T16:46:07.178Z,98271.00
2023-04-19T16:48:34.777Z,98278.00
2023-04-19T16:51:02.192Z,98267.00
2023-04-19T16:53:31.496Z,98268.00
2023-04-19T16:56:00.361Z,98265.00
2023-04-19T16:58:27.831Z,98260.00
2023-04-19T17:00:57.070Z,98254.00
2023-04-19T17:03:24.640Z,98261.00
2023-04-19T17:05:52.154Z,98258.00
2023-04-19T17:08:21.524Z,98268.00
2023-04-19T17:10:49.228Z,98265.00
2023-04-19T17:13:16.745Z,98265.00
2023-04-19T17:15:44.262Z,98255.00
2023-04-19T17:18:11.751Z,98256.00
2023-04-19T17:20:39.380Z,98264.00
2023-04-19T17:23:06.983Z,98261.00
2023-04-19T17:25:34.427Z,98259.00
2023-04-19T17:28:01.929Z,98254.00
2023-04-19T17:30:29.333Z,98251.00
2023-04-19T17:32:56.791Z,98248.00
2023-04-19T17:35:26.043Z,98252.00
2023-04-19T17:37:53.510Z,98253.00
2023-04-19T17:40:21.848Z,98245.00
2023-04-19T17:42:49.255Z,98253.00
2023-04-19T17:45:16.894Z,98258.00
2023-04-19T17:47:44.521Z,98259.00
2023-04-19T17:50:13.938Z,98251.00
2023-04-19T17:52:41.403Z,98249.00
2023-04-19T17:55:09.768Z,98254.00
2023-04-19T17:57:37.194Z,98255.00
2023-04-19T18:00:07.837Z,98246.00
2023-04-19T18:02:35.522Z,98250.00
2023-04-19T18:05:03.389Z,98239.00
2023-04-19T18:07:30.929Z,98251.00
2023-04-19T18:09:58.360Z,98254.00
2023-04-19T18:12:26.035Z,98256.00
2023-04-19T18:14:53.493Z,98248.00
2023-04-19T18:17:21.642Z,98242.00
2023-04-19T18:19:49.135Z,98248.00
2023-04-19T18:22:16.559Z,98253.00
2023-04-19T18:24:46.556Z,98249.00
2023-04-19T18:27:15.147Z,98244.00
2023-04-19T18:29:42.602Z,98243.00
2023-04-19T18:32:10.104Z,98253.00
2023-04-19T18:34:37.720Z,98249.00
2023-04-19T18:37:16.692Z,98247.00
2023-04-19T18:39:44.446Z,98251.00
2023-04-19T18:42:12.342Z,98255.00
2023-04-19T18:44:53.112Z,98250.00
2023-04-19T18:47:22.928Z,98255.00
2023-04-19T18:50:03.497Z,98247.00
2023-04-19T18:52:33.187Z,98255.00
2023-04-19T18:55:00.822Z,98257.00
2023-04-19T18:57:30.445Z,98251.00
2023-04-19T19:00:01.610Z,98257.00
2023-04-19T19:02:29.457Z,98254.00
2023-04-19T19:05:01.242Z,98263.00
2023-04-19T19:07:36.659Z,98259.00
2023-04-19T19:10:19.241Z,98252.00
2023-04-19T19:12:49.558Z,98267.00
2023-04-19T19:15:17.503Z,98272.00
2023-04-19T19:17:49.369Z,98267.00
2023-04-19T19:20:19.565Z,98263.00
2023-04-19T19:22:48.545Z,98269.00
2023-04-19T19:25:16.435Z,98267.00
2023-04-19T19:27:58.359Z,98269.00
2023-04-19T19:30:33.927Z,98268.00
2023-04-19T19:33:03.006Z,98262.00
2023-04-19T19:35:30.529Z,98267.00
2023-04-19T19:37:57.935Z,98270.00
2023-04-19T19:40:25.373Z,98271.00
2023-04-19T19:42:52.932Z,98271.00
2023-04-19T19:45:20.956Z,98272.00
2023-04-19T19:47:50.063Z,98271.00
2023-04-19T19:52:48.433Z,98285.00
2023-04-19T19:55:15.893Z,98279.00
2023-04-19T20:05:18.539Z,98329.00
2023-04-19T20:08:01.169Z,98318.00
2023-04-19T20:10:29.622Z,98317.00
2023-04-19T20:12:57.340Z,98325.00
2023-04-19T20:15:25.114Z,98323.00
2023-04-19T20:17:52.663Z,98329.00
2023-04-19T20:20:20.973Z,98338.00
2023-04-19T20:22:48.996Z,98323.00
2023-04-19T20:25:16.689Z,98322.00
2023-04-19T20:27:44.162Z,98331.00
2023-04-19T20:30:13.915Z,98327.00
2023-04-19T20:32:43.017Z,98336.00
2023-04-19T20:35:12.622Z,98330.00
2023-04-19T20:37:40.659Z,98326.00
2023-04-19T20:40:14.630Z,98329.00
2023-04-19T20:42:42.608Z,98338.00
2023-04-19T20:45:10.720Z,98340.00
2023-04-19T20:47:38.910Z,98333.00
2023-04-19T20:50:08.803Z,98324.00
2023-04-19T20:52:36.305Z,98335.00
2023-04-19T20:55:04.049Z,98331.00
2023-04-19T20:57:31.589Z,98331.00
2023-04-19T21:00:00.588Z,98329.00
2023-04-19T21:02:28.825Z,98339.00
2023-04-19T21:04:56.554Z,98337.00
2023-04-19T21:07:23.993Z,98332.00
2023-04-19T21:09:51.425Z,98328.00
2023-04-19T21:12:18.907Z,98334.00
2023-04-19T21:14:49.411Z,98327.00
2023-04-19T21:17:17.090Z,98342.00
2023-04-19T21:19:44.568Z,98344.00
2023-04-19T21:22:11.987Z,98337.00
2023-04-19T21:24:39.484Z,98347.00
2023-04-19T21:27:06.886Z,98337.00
2023-04-19T21:29:34.400Z,98341.00
2023-04-19T21:32:01.870Z,98344.00
2023-04-19T21:34:29.306Z,98342.00
2023-04-19T21:36:56.730Z,98356.00
2023-04-19T21:39:24.254Z,98359.00
2023-04-19T21:41:51.683Z,98350.00
2023-04-19T21:44:19.090Z,98325.00
2023-04-19T21:46:46.753Z,98342.00
2023-04-19T21:49:14.502Z,98350.00
2023-04-19T21:51:41.990Z,98352.00
